sensor_id;sensor_type;location;lat;lon;timestamp;P1;durP1;ratioP1;P2;durP2;ratioP2
4694;SDS011;2361;49.540;8.390;2022-07-29T00:02:26;4.27;;;2.50;;
4694;SDS011;2361;49.540;8.390;2022-07-29T00:04:53;9.23;;;2.67;;
4694;SDS011;2361;49.540;8.390;2022-07-29T00:07:20;4.57;;;2.90;;
4694;SDS011;2361;49.540;8.390;2022-07-29T00:09:47;10.87;;;2.90;;
4694;SDS011;2361;49.540;8.390;2022-07-29T00:12:21;2.83;;;2.60;;
4694;SDS011;2361;49.540;8.390;2022-07-29T00:14:53;3.10;;;2.87;;
4694;SDS011;2361;49.540;8.390;2022-07-29T00:17:21;3.10;;;2.90;;
4694;SDS011;2361;49.540;8.390;2022-07-29T00:19:49;3.17;;;2.97;;
4694;SDS011;2361;49.540;8.390;2022-07-29T00:22:16;3.20;;;2.87;;
4694;SDS011;2361;49.540;8.390;2022-07-29T00:24:43;2.87;;;2.60;;
4694;SDS011;2361;49.540;8.390;2022-07-29T00:27:10;6.13;;;3.00;;
4694;SDS011;2361;49.540;8.390;2022-07-29T00:29:37;2.87;;;2.67;;
4694;SDS011;2361;49.540;8.390;2022-07-29T00:32:04;2.73;;;2.53;;
4694;SDS011;2361;49.540;8.390;2022-07-29T00:34:31;3.67;;;2.90;;
4694;SDS011;2361;49.540;8.390;2022-07-29T00:37:17;2.90;;;2.70;;
4694;SDS011;2361;49.540;8.390;2022-07-29T00:39:44;2.70;;;2.50;;
4694;SDS011;2361;49.540;8.390;2022-07-29T00:42:11;2.97;;;2.77;;
4694;SDS011;2361;49.540;8.390;2022-07-29T00:44:38;3.67;;;2.50;;
4694;SDS011;2361;49.540;8.390;2022-07-29T00:47:07;3.03;;;2.30;;
4694;SDS011;2361;49.540;8.390;2022-07-29T00:49:36;4.37;;;2.20;;
4694;SDS011;2361;49.540;8.390;2022-07-29T00:52:05;6.83;;;2.90;;
4694;SDS011;2361;49.540;8.390;2022-07-29T00:54:34;2.77;;;2.60;;
4694;SDS011;2361;49.540;8.390;2022-07-29T00:57:09;2.33;;;2.20;;
4694;SDS011;2361;49.540;8.390;2022-07-29T00:59:37;2.73;;;2.50;;
4694;SDS011;2361;49.540;8.390;2022-07-29T01:02:04;4.40;;;2.40;;
4694;SDS011;2361;49.540;8.390;2022-07-29T01:04:31;7.00;;;2.43;;
4694;SDS011;2361;49.540;8.390;2022-07-29T01:07:00;12.47;;;2.60;;
4694;SDS011;2361;49.540;8.390;2022-07-29T01:09:28;2.70;;;2.50;;
4694;SDS011;2361;49.540;8.390;2022-07-29T01:12:13;2.57;;;2.20;;
4694;SDS011;2361;49.540;8.390;2022-07-29T01:14:44;3.60;;;2.13;;
4694;SDS011;2361;49.540;8.390;2022-07-29T01:17:24;2.00;;;1.90;;
4694;SDS011;2361;49.540;8.390;2022-07-29T01:31:16;1.80;;;1.70;;
4694;SDS011;2361;49.540;8.390;2022-07-29T01:33:58;2.30;;;2.10;;
4694;SDS011;2361;49.540;8.390;2022-07-29T01:36:33;2.40;;;1.90;;
4694;SDS011;2361;49.540;8.390;2022-07-29T01:39:14;2.50;;;2.30;;
4694;SDS011;2361;49.540;8.390;2022-07-29T01:41:54;2.67;;;2.30;;
4694;SDS011;2361;49.540;8.390;2022-07-29T01:45:37;3.87;;;2.00;;
4694;SDS011;2361;49.540;8.390;2022-07-29T01:50:41;3.30;;;2.20;;
4694;SDS011;2361;49.540;8.390;2022-07-29T01:53:35;2.87;;;2.40;;
4694;SDS011;2361;49.540;8.390;2022-07-29T01:56:10;2.10;;;2.00;;
4694;SDS011;2361;49.540;8.390;2022-07-29T01:58:40;4.77;;;2.40;;
4694;SDS011;2361;49.540;8.390;2022-07-29T02:01:09;2.07;;;1.97;;
4694;SDS011;2361;49.540;8.390;2022-07-29T02:03:38;5.80;;;2.40;;
4694;SDS011;2361;49.540;8.390;2022-07-29T02:06:11;2.53;;;2.33;;
4694;SDS011;2361;49.540;8.390;2022-07-29T02:08:44;2.60;;;2.10;;
4694;SDS011;2361;49.540;8.390;2022-07-29T02:11:13;4.60;;;2.50;;
4694;SDS011;2361;49.540;8.390;2022-07-29T02:13:40;3.63;;;2.30;;
4694;SDS011;2361;49.540;8.390;2022-07-29T02:16:08;2.20;;;2.10;;
4694;SDS011;2361;49.540;8.390;2022-07-29T02:18:39;2.47;;;2.37;;
4694;SDS011;2361;49.540;8.390;2022-07-29T02:21:09;5.77;;;2.60;;
4694;SDS011;2361;49.540;8.390;2022-07-29T02:23:41;3.27;;;2.40;;
4694;SDS011;2361;49.540;8.390;2022-07-29T02:26:17;3.27;;;2.13;;
4694;SDS011;2361;49.540;8.390;2022-07-29T02:28:50;2.43;;;2.20;;
4694;SDS011;2361;49.540;8.390;2022-07-29T02:31:29;4.70;;;2.30;;
4694;SDS011;2361;49.540;8.390;2022-07-29T02:34:05;2.50;;;2.30;;
4694;SDS011;2361;49.540;8.390;2022-07-29T02:36:34;2.53;;;2.33;;
4694;SDS011;2361;49.540;8.390;2022-07-29T02:39:03;7.43;;;2.50;;
4694;SDS011;2361;49.540;8.390;2022-07-29T02:41:46;2.60;;;2.40;;
4694;SDS011;2361;49.540;8.390;2022-07-29T02:44:18;4.93;;;2.47;;
4694;SDS011;2361;49.540;8.390;2022-07-29T02:46:49;2.53;;;2.30;;
4694;SDS011;2361;49.540;8.390;2022-07-29T02:50:00;2.40;;;2.20;;
4694;SDS011;2361;49.540;8.390;2022-07-29T02:55:25;2.40;;;2.30;;
4694;SDS011;2361;49.540;8.390;2022-07-29T02:57:59;2.60;;;2.40;;
4694;SDS011;2361;49.540;8.390;2022-07-29T03:00:40;2.90;;;2.70;;
4694;SDS011;2361;49.540;8.390;2022-07-29T03:03:08;2.50;;;2.20;;
4694;SDS011;2361;49.540;8.390;2022-07-29T03:05:39;2.87;;;2.50;;
4694;SDS011;2361;49.540;8.390;2022-07-29T03:08:08;4.07;;;2.90;;
4694;SDS011;2361;49.540;8.390;2022-07-29T03:10:39;3.73;;;2.97;;
4694;SDS011;2361;49.540;8.390;2022-07-29T03:13:09;4.33;;;2.00;;
4694;SDS011;2361;49.540;8.390;2022-07-29T03:15:38;3.57;;;2.60;;
4694;SDS011;2361;49.540;8.390;2022-07-29T03:18:06;2.80;;;2.50;;
4694;SDS011;2361;49.540;8.390;2022-07-29T03:20:34;7.03;;;2.50;;
4694;SDS011;2361;49.540;8.390;2022-07-29T03:23:01;4.40;;;2.67;;
4694;SDS011;2361;49.540;8.390;2022-07-29T03:25:28;2.57;;;2.40;;
4694;SDS011;2361;49.540;8.390;2022-07-29T03:27:55;2.90;;;2.23;;
4694;SDS011;2361;49.540;8.390;2022-07-29T03:30:22;4.00;;;2.60;;
4694;SDS011;2361;49.540;8.390;2022-07-29T03:32:50;3.00;;;2.70;;
4694;SDS011;2361;49.540;8.390;2022-07-29T03:35:19;4.10;;;2.53;;
4694;SDS011;2361;49.540;8.390;2022-07-29T03:37:46;2.80;;;2.70;;
4694;SDS011;2361;49.540;8.390;2022-07-29T03:40:15;2.87;;;2.60;;
4694;SDS011;2361;49.540;8.390;2022-07-29T03:42:46;3.50;;;2.70;;
4694;SDS011;2361;49.540;8.390;2022-07-29T03:45:17;2.80;;;2.60;;
4694;SDS011;2361;49.540;8.390;2022-07-29T03:47:46;2.47;;;2.30;;
4694;SDS011;2361;49.540;8.390;2022-07-29T03:50:21;3.33;;;3.03;;
4694;SDS011;2361;49.540;8.390;2022-07-29T03:52:48;6.67;;;3.10;;
4694;SDS011;2361;49.540;8.390;2022-07-29T03:55:15;2.70;;;2.50;;
4694;SDS011;2361;49.540;8.390;2022-07-29T03:57:43;2.80;;;2.60;;
4694;SDS011;2361;49.540;8.390;2022-07-29T04:00:12;2.70;;;2.50;;
4694;SDS011;2361;49.540;8.390;2022-07-29T04:02:41;2.50;;;2.40;;
4694;SDS011;2361;49.540;8.390;2022-07-29T04:05:15;3.43;;;2.60;;
4694;SDS011;2361;49.540;8.390;2022-07-29T04:07:47;3.10;;;2.90;;
4694;SDS011;2361;49.540;8.390;2022-07-29T04:10:14;2.83;;;2.50;;
4694;SDS011;2361;49.540;8.390;2022-07-29T04:12:55;2.97;;;2.67;;
4694;SDS011;2361;49.540;8.390;2022-07-29T04:15:22;2.30;;;2.20;;
4694;SDS011;2361;49.540;8.390;2022-07-29T04:17:49;3.10;;;2.90;;
4694;SDS011;2361;49.540;8.390;2022-07-29T04:20:16;3.33;;;3.10;;
4694;SDS011;2361;49.540;8.390;2022-07-29T04:22:43;2.50;;;2.30;;
4694;SDS011;2361;49.540;8.390;2022-07-29T04:25:10;3.23;;;2.47;;
4694;SDS011;2361;49.540;8.390;2022-07-29T04:27:37;2.50;;;2.30;;
4694;SDS011;2361;49.540;8.390;2022-07-29T04:30:24;2.70;;;2.13;;
4694;SDS011;2361;49.540;8.390;2022-07-29T04:32:51;2.93;;;2.73;;
4694;SDS011;2361;49.540;8.390;2022-07-29T04:35:18;8.70;;;2.53;;
4694;SDS011;2361;49.540;8.390;2022-07-29T04:37:49;4.63;;;2.60;;
4694;SDS011;2361;49.540;8.390;2022-07-29T04:40:16;2.60;;;2.43;;
4694;SDS011;2361;49.540;8.390;2022-07-29T04:42:43;3.10;;;2.90;;
4694;SDS011;2361;49.540;8.390;2022-07-29T04:45:13;4.80;;;2.90;;
4694;SDS011;2361;49.540;8.390;2022-07-29T04:47:47;4.13;;;2.57;;
4694;SDS011;2361;49.540;8.390;2022-07-29T04:50:15;2.57;;;2.37;;
4694;SDS011;2361;49.540;8.390;2022-07-29T04:52:42;2.70;;;2.40;;
4694;SDS011;2361;49.540;8.390;2022-07-29T04:55:09;3.57;;;2.77;;
4694;SDS011;2361;49.540;8.390;2022-07-29T04:57:36;2.80;;;2.60;;
4694;SDS011;2361;49.540;8.390;2022-07-29T05:00:04;2.60;;;2.40;;
4694;SDS011;2361;49.540;8.390;2022-07-29T05:02:32;3.10;;;2.80;;
4694;SDS011;2361;49.540;8.390;2022-07-29T05:04:59;4.40;;;2.67;;
4694;SDS011;2361;49.540;8.390;2022-07-29T05:07:26;2.90;;;2.70;;
4694;SDS011;2361;49.540;8.390;2022-07-29T05:09:53;3.13;;;2.93;;
4694;SDS011;2361;49.540;8.390;2022-07-29T05:12:23;2.80;;;2.60;;
4694;SDS011;2361;49.540;8.390;2022-07-29T05:14:51;3.20;;;2.97;;
4694;SDS011;2361;49.540;8.390;2022-07-29T05:17:18;2.50;;;2.40;;
4694;SDS011;2361;49.540;8.390;2022-07-29T05:19:45;3.10;;;2.80;;
4694;SDS011;2361;49.540;8.390;2022-07-29T05:22:12;2.63;;;2.43;;
4694;SDS011;2361;49.540;8.390;2022-07-29T05:24:38;4.10;;;2.73;;
4694;SDS011;2361;49.540;8.390;2022-07-29T05:27:06;3.70;;;2.90;;
4694;SDS011;2361;49.540;8.390;2022-07-29T05:29:33;3.20;;;2.90;;
4694;SDS011;2361;49.540;8.390;2022-07-29T05:32:10;9.23;;;2.83;;
4694;SDS011;2361;49.540;8.390;2022-07-29T05:34:38;3.30;;;3.10;;
4694;SDS011;2361;49.540;8.390;2022-07-29T05:37:17;6.23;;;2.60;;
4694;SDS011;2361;49.540;8.390;2022-07-29T05:39:45;3.23;;;2.93;;
4694;SDS011;2361;49.540;8.390;2022-07-29T05:42:22;3.97;;;2.37;;
4694;SDS011;2361;49.540;8.390;2022-07-29T05:44:50;3.33;;;2.70;;
4694;SDS011;2361;49.540;8.390;2022-07-29T05:47:17;4.50;;;3.10;;
4694;SDS011;2361;49.540;8.390;2022-07-29T05:49:45;3.10;;;2.90;;
4694;SDS011;2361;49.540;8.390;2022-07-29T05:52:12;4.30;;;2.87;;
4694;SDS011;2361;49.540;8.390;2022-07-29T05:54:39;3.13;;;2.70;;
4694;SDS011;2361;49.540;8.390;2022-07-29T05:57:06;3.00;;;2.20;;
4694;SDS011;2361;49.540;8.390;2022-07-29T05:59:37;4.37;;;3.30;;
4694;SDS011;2361;49.540;8.390;2022-07-29T06:02:04;4.67;;;2.63;;
4694;SDS011;2361;49.540;8.390;2022-07-29T06:04:32;3.27;;;3.00;;
4694;SDS011;2361;49.540;8.390;2022-07-29T06:06:59;2.73;;;2.50;;
4694;SDS011;2361;49.540;8.390;2022-07-29T06:09:27;2.80;;;2.57;;
4694;SDS011;2361;49.540;8.390;2022-07-29T06:11:54;4.57;;;3.00;;
4694;SDS011;2361;49.540;8.390;2022-07-29T06:14:22;3.23;;;2.93;;
4694;SDS011;2361;49.540;8.390;2022-07-29T06:16:48;3.63;;;2.73;;
4694;SDS011;2361;49.540;8.390;2022-07-29T06:19:16;12.00;;;2.70;;
4694;SDS011;2361;49.540;8.390;2022-07-29T06:21:43;6.40;;;3.20;;
4694;SDS011;2361;49.540;8.390;2022-07-29T06:24:14;3.70;;;3.40;;
4694;SDS011;2361;49.540;8.390;2022-07-29T06:26:42;7.80;;;3.20;;
4694;SDS011;2361;49.540;8.390;2022-07-29T06:29:09;5.73;;;3.17;;
4694;SDS011;2361;49.540;8.390;2022-07-29T06:31:38;11.73;;;3.63;;
4694;SDS011;2361;49.540;8.390;2022-07-29T06:34:05;3.40;;;2.83;;
4694;SDS011;2361;49.540;8.390;2022-07-29T06:36:34;4.33;;;3.27;;
4694;SDS011;2361;49.540;8.390;2022-07-29T06:39:06;9.83;;;3.60;;
4694;SDS011;2361;49.540;8.390;2022-07-29T06:41:36;4.77;;;3.50;;
4694;SDS011;2361;49.540;8.390;2022-07-29T06:44:03;9.50;;;3.40;;
4694;SDS011;2361;49.540;8.390;2022-07-29T06:46:30;4.13;;;3.40;;
4694;SDS011;2361;49.540;8.390;2022-07-29T06:48:58;5.83;;;3.50;;
4694;SDS011;2361;49.540;8.390;2022-07-29T06:51:27;3.90;;;3.03;;
4694;SDS011;2361;49.540;8.390;2022-07-29T06:53:54;3.37;;;3.07;;
4694;SDS011;2361;49.540;8.390;2022-07-29T06:56:31;4.50;;;3.37;;
4694;SDS011;2361;49.540;8.390;2022-07-29T06:59:05;3.50;;;3.20;;
4694;SDS011;2361;49.540;8.390;2022-07-29T07:01:34;8.33;;;3.70;;
4694;SDS011;2361;49.540;8.390;2022-07-29T07:04:03;3.90;;;3.60;;
4694;SDS011;2361;49.540;8.390;2022-07-29T07:06:30;5.00;;;4.13;;
4694;SDS011;2361;49.540;8.390;2022-07-29T07:08:57;4.00;;;3.70;;
4694;SDS011;2361;49.540;8.390;2022-07-29T07:11:24;4.40;;;3.73;;
4694;SDS011;2361;49.540;8.390;2022-07-29T07:13:51;6.20;;;4.03;;
4694;SDS011;2361;49.540;8.390;2022-07-29T07:16:18;5.00;;;4.50;;
4694;SDS011;2361;49.540;8.390;2022-07-29T07:18:45;7.23;;;4.70;;
4694;SDS011;2361;49.540;8.390;2022-07-29T07:21:12;4.47;;;4.17;;
4694;SDS011;2361;49.540;8.390;2022-07-29T07:23:44;5.90;;;4.00;;
4694;SDS011;2361;49.540;8.390;2022-07-29T07:26:12;4.93;;;4.43;;
4694;SDS011;2361;49.540;8.390;2022-07-29T07:28:39;4.00;;;3.70;;
4694;SDS011;2361;49.540;8.390;2022-07-29T07:31:06;5.17;;;4.67;;
4694;SDS011;2361;49.540;8.390;2022-07-29T07:33:33;4.20;;;3.97;;
4694;SDS011;2361;49.540;8.390;2022-07-29T07:36:00;4.30;;;3.73;;
4694;SDS011;2361;49.540;8.390;2022-07-29T07:38:26;3.87;;;3.57;;
4694;SDS011;2361;49.540;8.390;2022-07-29T07:40:54;7.53;;;5.20;;
4694;SDS011;2361;49.540;8.390;2022-07-29T07:43:20;5.20;;;4.03;;
4694;SDS011;2361;49.540;8.390;2022-07-29T07:45:48;4.10;;;3.70;;
4694;SDS011;2361;49.540;8.390;2022-07-29T07:48:15;6.70;;;3.60;;
4694;SDS011;2361;49.540;8.390;2022-07-29T07:50:42;6.40;;;4.20;;
4694;SDS011;2361;49.540;8.390;2022-07-29T07:53:10;4.37;;;3.43;;
4694;SDS011;2361;49.540;8.390;2022-07-29T07:55:40;4.10;;;3.80;;
4694;SDS011;2361;49.540;8.390;2022-07-29T07:58:27;4.30;;;3.90;;
4694;SDS011;2361;49.540;8.390;2022-07-29T08:00:54;7.53;;;3.90;;
4694;SDS011;2361;49.540;8.390;2022-07-29T08:03:21;4.53;;;3.70;;
4694;SDS011;2361;49.540;8.390;2022-07-29T08:05:48;4.73;;;4.20;;
4694;SDS011;2361;49.540;8.390;2022-07-29T08:08:17;4.43;;;3.80;;
4694;SDS011;2361;49.540;8.390;2022-07-29T08:10:47;9.80;;;4.30;;
4694;SDS011;2361;49.540;8.390;2022-07-29T08:13:20;7.60;;;6.30;;
4694;SDS011;2361;49.540;8.390;2022-07-29T08:15:51;8.23;;;6.20;;
4694;SDS011;2361;49.540;8.390;2022-07-29T08:18:24;4.80;;;4.13;;
4694;SDS011;2361;49.540;8.390;2022-07-29T08:20:57;3.80;;;3.57;;
4694;SDS011;2361;49.540;8.390;2022-07-29T08:23:24;3.77;;;3.47;;
4694;SDS011;2361;49.540;8.390;2022-07-29T08:26:13;4.27;;;3.60;;
4694;SDS011;2361;49.540;8.390;2022-07-29T08:28:40;4.17;;;3.77;;
4694;SDS011;2361;49.540;8.390;2022-07-29T08:31:14;4.20;;;3.80;;
4694;SDS011;2361;49.540;8.390;2022-07-29T08:33:42;4.07;;;3.77;;
4694;SDS011;2361;49.540;8.390;2022-07-29T08:36:09;4.63;;;3.60;;
4694;SDS011;2361;49.540;8.390;2022-07-29T08:38:36;4.90;;;3.80;;
4694;SDS011;2361;49.540;8.390;2022-07-29T08:41:03;3.80;;;3.60;;
4694;SDS011;2361;49.540;8.390;2022-07-29T08:43:30;4.00;;;3.63;;
4694;SDS011;2361;49.540;8.390;2022-07-29T08:45:58;3.57;;;3.37;;
4694;SDS011;2361;49.540;8.390;2022-07-29T08:48:25;4.30;;;4.00;;
4694;SDS011;2361;49.540;8.390;2022-07-29T08:50:53;4.00;;;3.70;;
4694;SDS011;2361;49.540;8.390;2022-07-29T08:53:22;4.43;;;4.03;;
4694;SDS011;2361;49.540;8.390;2022-07-29T08:55:53;4.80;;;3.97;;
4694;SDS011;2361;49.540;8.390;2022-07-29T08:58:21;4.60;;;4.20;;
4694;SDS011;2361;49.540;8.390;2022-07-29T09:00:54;4.10;;;3.63;;
4694;SDS011;2361;49.540;8.390;2022-07-29T09:03:23;5.70;;;4.30;;
4694;SDS011;2361;49.540;8.390;2022-07-29T09:05:52;4.37;;;4.00;;
4694;SDS011;2361;49.540;8.390;2022-07-29T09:08:19;5.40;;;3.60;;
4694;SDS011;2361;49.540;8.390;2022-07-29T09:10:46;4.07;;;3.60;;
4694;SDS011;2361;49.540;8.390;2022-07-29T09:13:14;4.30;;;3.90;;
4694;SDS011;2361;49.540;8.390;2022-07-29T09:15:40;4.20;;;3.80;;
4694;SDS011;2361;49.540;8.390;2022-07-29T09:18:07;4.53;;;4.13;;
4694;SDS011;2361;49.540;8.390;2022-07-29T09:20:54;4.50;;;4.20;;
4694;SDS011;2361;49.540;8.390;2022-07-29T09:23:40;7.93;;;3.93;;
4694;SDS011;2361;49.540;8.390;2022-07-29T09:26:08;4.47;;;4.07;;
4694;SDS011;2361;49.540;8.390;2022-07-29T09:28:35;4.57;;;4.30;;
4694;SDS011;2361;49.540;8.390;2022-07-29T09:31:08;3.53;;;3.40;;
4694;SDS011;2361;49.540;8.390;2022-07-29T09:33:35;4.50;;;4.20;;
4694;SDS011;2361;49.540;8.390;2022-07-29T09:36:08;4.27;;;4.00;;
4694;SDS011;2361;49.540;8.390;2022-07-29T09:38:37;4.37;;;4.07;;
4694;SDS011;2361;49.540;8.390;2022-07-29T09:41:04;4.57;;;4.07;;
4694;SDS011;2361;49.540;8.390;2022-07-29T09:43:34;4.20;;;3.90;;
4694;SDS011;2361;49.540;8.390;2022-07-29T09:46:13;3.87;;;3.77;;
4694;SDS011;2361;49.540;8.390;2022-07-29T09:48:41;4.60;;;4.20;;
4694;SDS011;2361;49.540;8.390;2022-07-29T09:51:18;4.40;;;4.10;;
4694;SDS011;2361;49.540;8.390;2022-07-29T09:53:53;3.80;;;3.50;;
4694;SDS011;2361;49.540;8.390;2022-07-29T09:56:23;4.27;;;4.07;;
4694;SDS011;2361;49.540;8.390;2022-07-29T09:59:08;3.77;;;3.57;;
4694;SDS011;2361;49.540;8.390;2022-07-29T10:01:37;3.77;;;3.67;;
4694;SDS011;2361;49.540;8.390;2022-07-29T10:04:04;4.17;;;3.97;;
4694;SDS011;2361;49.540;8.390;2022-07-29T10:06:31;4.47;;;4.17;;
4694;SDS011;2361;49.540;8.390;2022-07-29T10:09:07;3.60;;;3.50;;
4694;SDS011;2361;49.540;8.390;2022-07-29T10:11:35;4.70;;;3.90;;
4694;SDS011;2361;49.540;8.390;2022-07-29T10:14:15;4.40;;;3.87;;
4694;SDS011;2361;49.540;8.390;2022-07-29T10:19:41;4.87;;;3.90;;
4694;SDS011;2361;49.540;8.390;2022-07-29T10:22:09;4.00;;;3.70;;
4694;SDS011;2361;49.540;8.390;2022-07-29T10:24:37;4.63;;;4.23;;
4694;SDS011;2361;49.540;8.390;2022-07-29T10:27:07;4.13;;;3.93;;
4694;SDS011;2361;49.540;8.390;2022-07-29T10:29:35;5.37;;;4.80;;
4694;SDS011;2361;49.540;8.390;2022-07-29T10:38:04;5.43;;;4.70;;
4694;SDS011;2361;49.540;8.390;2022-07-29T10:43:46;4.63;;;4.20;;
4694;SDS011;2361;49.540;8.390;2022-07-29T10:46:17;5.07;;;4.50;;
4694;SDS011;2361;49.540;8.390;2022-07-29T10:51:56;4.70;;;4.30;;
4694;SDS011;2361;49.540;8.390;2022-07-29T10:54:43;6.90;;;4.63;;
4694;SDS011;2361;49.540;8.390;2022-07-29T10:57:29;4.47;;;4.17;;
4694;SDS011;2361;49.540;8.390;2022-07-29T11:02:55;5.07;;;4.67;;
4694;SDS011;2361;49.540;8.390;2022-07-29T11:05:24;4.47;;;4.10;;
4694;SDS011;2361;49.540;8.390;2022-07-29T11:10:52;4.93;;;4.20;;
4694;SDS011;2361;49.540;8.390;2022-07-29T11:13:48;9.30;;;3.80;;
4694;SDS011;2361;49.540;8.390;2022-07-29T11:16:22;4.30;;;3.93;;
4694;SDS011;2361;49.540;8.390;2022-07-29T11:21:41;4.27;;;3.87;;
4694;SDS011;2361;49.540;8.390;2022-07-29T11:24:30;3.87;;;3.57;;
4694;SDS011;2361;49.540;8.390;2022-07-29T11:27:18;4.00;;;3.67;;
4694;SDS011;2361;49.540;8.390;2022-07-29T11:29:47;4.30;;;4.00;;
4694;SDS011;2361;49.540;8.390;2022-07-29T11:32:19;4.33;;;3.80;;
4694;SDS011;2361;49.540;8.390;2022-07-29T11:34:49;4.50;;;4.10;;
4694;SDS011;2361;49.540;8.390;2022-07-29T11:49:33;3.87;;;3.53;;
4694;SDS011;2361;49.540;8.390;2022-07-29T11:52:01;4.47;;;4.07;;
4694;SDS011;2361;49.540;8.390;2022-07-29T11:54:30;4.53;;;4.23;;
4694;SDS011;2361;49.540;8.390;2022-07-29T11:57:21;4.20;;;3.80;;
4694;SDS011;2361;49.540;8.390;2022-07-29T12:00:05;4.50;;;4.10;;
4694;SDS011;2361;49.540;8.390;2022-07-29T12:02:40;8.53;;;4.17;;
4694;SDS011;2361;49.540;8.390;2022-07-29T12:05:13;4.90;;;4.47;;
4694;SDS011;2361;49.540;8.390;2022-07-29T12:08:17;3.73;;;3.30;;
4694;SDS011;2361;49.540;8.390;2022-07-29T12:10:50;4.70;;;4.30;;
4694;SDS011;2361;49.540;8.390;2022-07-29T12:13:19;4.13;;;3.80;;
4694;SDS011;2361;49.540;8.390;2022-07-29T12:15:54;4.37;;;3.70;;
4694;SDS011;2361;49.540;8.390;2022-07-29T12:18:25;4.80;;;4.40;;
4694;SDS011;2361;49.540;8.390;2022-07-29T12:20:56;4.27;;;3.87;;
4694;SDS011;2361;49.540;8.390;2022-07-29T12:23:31;6.70;;;4.20;;
4694;SDS011;2361;49.540;8.390;2022-07-29T12:26:00;3.87;;;3.53;;
4694;SDS011;2361;49.540;8.390;2022-07-29T12:28:36;5.20;;;4.23;;
4694;SDS011;2361;49.540;8.390;2022-07-29T12:31:04;5.63;;;3.70;;
4694;SDS011;2361;49.540;8.390;2022-07-29T12:33:33;4.00;;;3.70;;
4694;SDS011;2361;49.540;8.390;2022-07-29T12:36:01;3.87;;;3.53;;
4694;SDS011;2361;49.540;8.390;2022-07-29T12:38:37;4.77;;;4.37;;
4694;SDS011;2361;49.540;8.390;2022-07-29T12:41:06;4.83;;;3.90;;
4694;SDS011;2361;49.540;8.390;2022-07-29T12:43:33;3.90;;;3.60;;
4694;SDS011;2361;49.540;8.390;2022-07-29T12:46:11;4.17;;;3.87;;
4694;SDS011;2361;49.540;8.390;2022-07-29T12:48:40;4.67;;;4.00;;
4694;SDS011;2361;49.540;8.390;2022-07-29T12:51:09;4.73;;;4.33;;
4694;SDS011;2361;49.540;8.390;2022-07-29T12:53:40;3.77;;;3.57;;
4694;SDS011;2361;49.540;8.390;2022-07-29T12:56:15;4.30;;;3.90;;
4694;SDS011;2361;49.540;8.390;2022-07-29T12:59:15;4.53;;;4.13;;
4694;SDS011;2361;49.540;8.390;2022-07-29T13:01:49;4.33;;;3.97;;
4694;SDS011;2361;49.540;8.390;2022-07-29T13:04:25;4.37;;;4.07;;
4694;SDS011;2361;49.540;8.390;2022-07-29T13:12:07;4.37;;;4.07;;
4694;SDS011;2361;49.540;8.390;2022-07-29T13:14:43;4.30;;;4.00;;
4694;SDS011;2361;49.540;8.390;2022-07-29T13:17:17;4.07;;;3.77;;
4694;SDS011;2361;49.540;8.390;2022-07-29T13:22:19;4.13;;;3.73;;
4694;SDS011;2361;49.540;8.390;2022-07-29T13:24:53;3.93;;;3.63;;
4694;SDS011;2361;49.540;8.390;2022-07-29T13:27:28;4.13;;;3.80;;
4694;SDS011;2361;49.540;8.390;2022-07-29T13:29:58;4.17;;;3.87;;
4694;SDS011;2361;49.540;8.390;2022-07-29T13:32:28;7.03;;;4.23;;
4694;SDS011;2361;49.540;8.390;2022-07-29T13:34:57;3.83;;;3.50;;
4694;SDS011;2361;49.540;8.390;2022-07-29T13:37:31;4.40;;;4.10;;
4694;SDS011;2361;49.540;8.390;2022-07-29T13:40:01;4.60;;;4.20;;
4694;SDS011;2361;49.540;8.390;2022-07-29T13:42:30;4.77;;;4.43;;
4694;SDS011;2361;49.540;8.390;2022-07-29T13:44:58;4.33;;;4.03;;
4694;SDS011;2361;49.540;8.390;2022-07-29T13:47:26;4.00;;;3.70;;
4694;SDS011;2361;49.540;8.390;2022-07-29T13:49:58;4.70;;;4.40;;
4694;SDS011;2361;49.540;8.390;2022-07-29T13:52:32;7.00;;;4.20;;
4694;SDS011;2361;49.540;8.390;2022-07-29T13:54:59;5.10;;;4.70;;
4694;SDS011;2361;49.540;8.390;2022-07-29T13:57:27;4.47;;;4.07;;
4694;SDS011;2361;49.540;8.390;2022-07-29T13:59:54;4.90;;;4.03;;
4694;SDS011;2361;49.540;8.390;2022-07-29T14:02:22;4.63;;;4.23;;
4694;SDS011;2361;49.540;8.390;2022-07-29T14:04:51;5.33;;;4.87;;
4694;SDS011;2361;49.540;8.390;2022-07-29T14:07:19;5.63;;;4.70;;
4694;SDS011;2361;49.540;8.390;2022-07-29T14:09:47;5.40;;;4.87;;
4694;SDS011;2361;49.540;8.390;2022-07-29T14:12:14;4.93;;;4.57;;
4694;SDS011;2361;49.540;8.390;2022-07-29T14:14:41;4.40;;;4.00;;
4694;SDS011;2361;49.540;8.390;2022-07-29T14:17:08;4.83;;;4.43;;
4694;SDS011;2361;49.540;8.390;2022-07-29T14:19:35;5.07;;;4.43;;
4694;SDS011;2361;49.540;8.390;2022-07-29T14:22:04;4.47;;;4.07;;
4694;SDS011;2361;49.540;8.390;2022-07-29T14:24:34;7.00;;;4.33;;
4694;SDS011;2361;49.540;8.390;2022-07-29T14:27:03;4.50;;;4.20;;
4694;SDS011;2361;49.540;8.390;2022-07-29T14:29:31;4.50;;;4.03;;
4694;SDS011;2361;49.540;8.390;2022-07-29T14:32:06;4.30;;;4.00;;
4694;SDS011;2361;49.540;8.390;2022-07-29T14:34:36;4.50;;;4.10;;
4694;SDS011;2361;49.540;8.390;2022-07-29T14:37:04;4.20;;;3.90;;
4694;SDS011;2361;49.540;8.390;2022-07-29T14:39:32;4.20;;;3.80;;
4694;SDS011;2361;49.540;8.390;2022-07-29T14:42:08;5.43;;;3.97;;
4694;SDS011;2361;49.540;8.390;2022-07-29T14:44:38;4.30;;;3.90;;
4694;SDS011;2361;49.540;8.390;2022-07-29T14:47:07;3.90;;;3.70;;
4694;SDS011;2361;49.540;8.390;2022-07-29T14:49:35;4.03;;;3.73;;
4694;SDS011;2361;49.540;8.390;2022-07-29T14:52:02;3.50;;;3.30;;
4694;SDS011;2361;49.540;8.390;2022-07-29T14:54:29;3.43;;;3.27;;
4694;SDS011;2361;49.540;8.390;2022-07-29T14:56:56;5.87;;;3.60;;
4694;SDS011;2361;49.540;8.390;2022-07-29T14:59:24;3.73;;;3.53;;
4694;SDS011;2361;49.540;8.390;2022-07-29T15:01:52;3.50;;;3.30;;
4694;SDS011;2361;49.540;8.390;2022-07-29T15:04:19;5.53;;;4.00;;
4694;SDS011;2361;49.540;8.390;2022-07-29T15:06:47;5.23;;;3.83;;
4694;SDS011;2361;49.540;8.390;2022-07-29T15:09:14;3.53;;;3.33;;
4694;SDS011;2361;49.540;8.390;2022-07-29T15:11:41;3.43;;;3.23;;
4694;SDS011;2361;49.540;8.390;2022-07-29T15:14:08;3.47;;;3.30;;
4694;SDS011;2361;49.540;8.390;2022-07-29T15:16:36;3.00;;;2.90;;
4694;SDS011;2361;49.540;8.390;2022-07-29T15:19:07;3.63;;;3.33;;
4694;SDS011;2361;49.540;8.390;2022-07-29T15:21:34;3.37;;;3.17;;
4694;SDS011;2361;49.540;8.390;2022-07-29T15:24:13;3.80;;;3.50;;
4694;SDS011;2361;49.540;8.390;2022-07-29T15:26:40;4.20;;;3.80;;
4694;SDS011;2361;49.540;8.390;2022-07-29T15:29:08;3.33;;;3.13;;
4694;SDS011;2361;49.540;8.390;2022-07-29T15:31:35;7.80;;;3.30;;
4694;SDS011;2361;49.540;8.390;2022-07-29T15:34:02;4.67;;;4.10;;
4694;SDS011;2361;49.540;8.390;2022-07-29T15:36:31;11.40;;;8.10;;
4694;SDS011;2361;49.540;8.390;2022-07-29T15:39:19;4.30;;;3.90;;
4694;SDS011;2361;49.540;8.390;2022-07-29T15:41:47;3.67;;;3.47;;
4694;SDS011;2361;49.540;8.390;2022-07-29T15:44:15;3.40;;;3.20;;
4694;SDS011;2361;49.540;8.390;2022-07-29T15:46:43;5.83;;;3.07;;
4694;SDS011;2361;49.540;8.390;2022-07-29T15:49:29;3.70;;;3.40;;
4694;SDS011;2361;49.540;8.390;2022-07-29T15:52:14;3.40;;;3.20;;
4694;SDS011;2361;49.540;8.390;2022-07-29T15:54:50;3.20;;;3.00;;
4694;SDS011;2361;49.540;8.390;2022-07-29T15:57:17;3.13;;;3.03;;
4694;SDS011;2361;49.540;8.390;2022-07-29T15:59:44;3.50;;;3.20;;
4694;SDS011;2361;49.540;8.390;2022-07-29T16:02:11;4.87;;;3.00;;
4694;SDS011;2361;49.540;8.390;2022-07-29T16:04:38;3.30;;;3.10;;
4694;SDS011;2361;49.540;8.390;2022-07-29T16:07:05;5.50;;;3.13;;
4694;SDS011;2361;49.540;8.390;2022-07-29T16:09:32;2.93;;;2.70;;
4694;SDS011;2361;49.540;8.390;2022-07-29T16:11:59;3.20;;;3.00;;
4694;SDS011;2361;49.540;8.390;2022-07-29T16:14:27;3.17;;;2.97;;
4694;SDS011;2361;49.540;8.390;2022-07-29T16:16:54;3.43;;;2.90;;
4694;SDS011;2361;49.540;8.390;2022-07-29T16:19:22;2.90;;;2.70;;
4694;SDS011;2361;49.540;8.390;2022-07-29T16:21:49;13.13;;;10.53;;
4694;SDS011;2361;49.540;8.390;2022-07-29T16:24:17;6.90;;;6.17;;
4694;SDS011;2361;49.540;8.390;2022-07-29T16:26:44;8.70;;;4.10;;
4694;SDS011;2361;49.540;8.390;2022-07-29T16:29:11;3.00;;;2.80;;
4694;SDS011;2361;49.540;8.390;2022-07-29T16:31:37;3.30;;;3.10;;
4694;SDS011;2361;49.540;8.390;2022-07-29T16:34:04;5.27;;;2.87;;
4694;SDS011;2361;49.540;8.390;2022-07-29T16:36:31;2.70;;;2.60;;
4694;SDS011;2361;49.540;8.390;2022-07-29T16:38:58;3.50;;;3.10;;